Time;durP1;ratioP1;P1;durP2;ratioP2;P2;SDS_P1;SDS_P2;PMS_P1;PMS_P2;Temp;Humidity;BMP_temperature;BMP_pressure;BME280_temperature;BME280_humidity;BME280_pressure;Samples;Min_cycle;Max_cycle;Signal;HPM_P1;HPM_P2
2022/05/11 00:01:59;;;;;;;16.60;14.90;;;15.70;99.90;;;;;;5096191;28;20200;-79
2022/05/11 00:04:26;;;;;;;16.50;14.90;;;15.60;99.90;;;;;;5096363;28;20196;-80
2022/05/11 00:06:53;;;;;;;16.98;15.02;;;15.50;99.90;;;;;;5096154;28;20200;-80
2022/05/11 00:09:21;;;;;;;18.67;15.65;;;15.50;99.90;;;;;;5096203;28;20202;-79
2022/05/11 00:11:47;;;;;;;17.23;15.38;;;15.40;99.90;;;;;;5096078;28;20254;-79
2022/05/11 00:14:14;;;;;;;16.73;15.03;;;15.50;99.90;;;;;;5096364;28;20226;-79
2022/05/11 00:16:42;;;;;;;17.23;15.53;;;15.40;99.90;;;;;;5096358;28;20236;-80
2022/05/11 00:19:08;;;;;;;17.23;15.53;;;15.30;99.90;;;;;;5097446;28;20205;-79
2022/05/11 00:21:36;;;;;;;16.60;15.00;;;15.30;99.90;;;;;;5096009;28;20656;-80
2022/05/11 00:24:03;;;;;;;17.00;15.20;;;15.10;99.90;;;;;;5095885;28;20196;-78
2022/05/11 00:26:31;;;;;;;16.93;15.07;;;15.00;99.90;;;;;;5108401;28;20200;-80
2022/05/11 00:28:57;;;;;;;16.67;15.17;;;15.00;99.90;;;;;;5100958;28;20655;-80
2022/05/11 00:31:24;;;;;;;16.27;14.67;;;14.90;99.90;;;;;;5095771;28;20200;-80
2022/05/11 00:33:52;;;;;;;16.57;15.07;;;14.80;99.90;;;;;;5095800;28;20201;-80
2022/05/11 00:36:18;;;;;;;17.70;15.93;;;14.80;99.90;;;;;;5095412;28;20261;-79
2022/05/11 00:38:47;;;;;;;16.97;15.17;;;14.70;99.90;;;;;;5095013;28;20258;-79
2022/05/11 00:41:13;;;;;;;17.00;15.20;;;14.70;99.90;;;;;;5095478;28;20245;-79
2022/05/11 00:43:51;;;;;;;16.33;14.70;;;14.70;99.90;;;;;;5095423;28;20556;-79
2022/05/11 00:46:22;;;;;;;16.30;14.80;;;14.60;99.90;;;;;;5095527;28;20249;-79
2022/05/11 00:51:42;;;;;;;17.37;15.07;;;14.50;99.90;;;;;;5095291;28;20317;-79
2022/05/11 00:54:09;;;;;;;16.57;15.07;;;14.50;99.90;;;;;;5095404;28;20249;-80
2022/05/11 00:56:39;;;;;;;15.80;14.37;;;14.50;99.90;;;;;;5095168;28;20285;-81
2022/05/11 00:59:13;;;;;;;15.77;14.17;;;14.50;99.90;;;;;;5095219;28;20677;-80
2022/05/11 01:01:41;;;;;;;16.17;14.67;;;14.50;99.90;;;;;;5095003;28;20200;-80
2022/05/11 01:04:11;;;;;;;16.17;14.57;;;14.40;99.90;;;;;;5095211;28;20204;-79
2022/05/11 01:06:40;;;;;;;15.80;14.40;;;14.50;99.90;;;;;;5095199;28;20200;-80
2022/05/11 01:09:07;;;;;;;16.03;14.43;;;14.50;99.90;;;;;;5094848;28;20729;-81
2022/05/11 01:11:38;;;;;;;16.60;14.90;;;14.60;99.90;;;;;;5094876;28;20196;-80
2022/05/11 01:14:10;;;;;;;16.43;14.80;;;14.60;99.90;;;;;;5094739;28;20262;-79
2022/05/11 01:16:37;;;;;;;16.27;14.87;;;14.40;99.90;;;;;;5094974;28;20232;-81
2022/05/11 01:19:06;;;;;;;15.77;14.23;;;14.20;99.90;;;;;;5094974;28;20201;-81
2022/05/11 01:21:43;;;;;;;17.60;14.50;;;14.10;99.90;;;;;;5094696;28;20196;-80
2022/05/11 01:24:33;;;;;;;16.93;15.30;;;14.20;99.90;;;;;;5094758;28;20200;-80
2022/05/11 01:27:24;;;;;;;16.50;15.00;;;14.30;99.90;;;;;;5094575;28;20208;-81
2022/05/11 01:29:51;;;;;;;17.47;14.90;;;14.20;99.90;;;;;;5094752;28;20192;-81
2022/05/11 01:32:18;;;;;;;15.97;14.47;;;14.20;99.90;;;;;;5094599;28;20192;-81
2022/05/11 01:34:45;;;;;;;16.87;15.27;;;14.20;99.90;;;;;;5094374;28;20200;-80
2022/05/11 01:37:11;;;;;;;16.97;15.27;;;14.00;99.90;;;;;;5094277;28;20223;-80
2022/05/11 01:39:39;;;;;;;16.80;14.93;;;14.00;99.90;;;;;;5095971;28;20200;-81
2022/05/11 01:42:06;;;;;;;17.50;15.80;;;14.00;99.90;;;;;;5095132;28;20675;-81
2022/05/11 01:44:33;;;;;;;17.10;15.53;;;14.00;99.90;;;;;;5096842;28;20196;-81
2022/05/11 01:47:00;;;;;;;17.67;16.07;;;14.00;99.90;;;;;;5098363;28;20664;-80
2022/05/11 01:49:28;;;;;;;18.10;16.40;;;14.00;99.90;;;;;;5098102;28;20203;-80
2022/05/11 01:51:54;;;;;;;17.73;15.87;;;13.90;99.90;;;;;;5096160;28;20234;-80
2022/05/11 01:54:21;;;;;;;17.87;15.97;;;14.00;99.90;;;;;;5098831;28;20245;-79
2022/05/11 01:56:50;;;;;;;18.13;15.70;;;14.00;99.90;;;;;;5095588;28;20232;-80
2022/05/11 01:59:16;;;;;;;18.20;16.20;;;14.00;99.90;;;;;;5094469;28;20200;-80
2022/05/11 02:01:43;;;;;;;18.07;16.07;;;13.90;99.90;;;;;;5094501;28;20196;-80
2022/05/11 02:09:36;;;;;;;18.97;17.07;;;13.70;99.90;;;;;;5093852;28;20655;-80
2022/05/11 02:12:05;;;;;;;20.47;18.50;;;13.70;99.90;;;;;;5093921;28;20287;-80
2022/05/11 02:14:32;;;;;;;18.57;16.73;;;13.60;99.90;;;;;;5093733;28;20668;-79
2022/05/11 02:16:58;;;;;;;21.77;18.03;;;13.70;99.90;;;;;;5093862;28;20223;-80
2022/05/11 02:19:25;;;;;;;22.03;18.43;;;13.60;99.90;;;;;;5093720;28;20200;-79
2022/05/11 02:21:52;;;;;;;21.63;19.33;;;13.60;99.90;;;;;;5093615;28;20208;-80
2022/05/11 02:24:18;;;;;;;21.53;19.23;;;13.60;99.90;;;;;;5093559;28;20196;-80
2022/05/11 02:26:45;;;;;;;21.27;18.80;;;13.60;99.90;;;;;;5093469;28;20197;-80
2022/05/11 02:29:13;;;;;;;20.80;18.33;;;13.60;99.90;;;;;;5093674;28;20196;-79
2022/05/11 02:31:40;;;;;;;22.50;19.43;;;13.50;99.90;;;;;;5093564;28;20648;-80
2022/05/11 02:34:07;;;;;;;19.17;17.13;;;13.50;99.90;;;;;;5093598;28;20241;-80
2022/05/11 02:36:34;;;;;;;22.40;20.10;;;13.40;99.90;;;;;;5093271;28;20626;-80
2022/05/11 02:39:01;;;;;;;21.47;19.37;;;13.40;99.90;;;;;;5093209;28;20197;-80
2022/05/11 02:41:28;;;;;;;23.37;19.87;;;13.40;99.90;;;;;;5093252;28;20239;-80
2022/05/11 02:43:55;;;;;;;23.80;18.53;;;13.30;99.90;;;;;;5093125;28;20196;-80
2022/05/11 02:46:23;;;;;;;27.43;20.53;;;13.30;99.90;;;;;;5093272;28;20201;-80
2022/05/11 02:48:50;;;;;;;22.83;20.43;;;13.40;99.90;;;;;;5093270;28;20352;-80
2022/05/11 02:51:16;;;;;;;24.90;20.17;;;13.30;99.90;;;;;;5092899;28;20231;-80
2022/05/11 02:53:43;;;;;;;24.27;19.60;;;13.30;99.90;;;;;;5093153;28;20239;-80
2022/05/11 02:56:10;;;;;;;23.80;19.93;;;13.30;99.90;;;;;;5092809;28;20679;-80
2022/05/11 02:58:36;;;;;;;24.27;20.00;;;13.20;99.90;;;;;;5092863;28;20660;-80
2022/05/11 03:01:04;;;;;;;23.43;19.23;;;13.20;99.90;;;;;;5092998;28;20196;-81
2022/05/11 03:03:34;;;;;;;23.90;18.87;;;13.20;99.90;;;;;;5092774;28;20721;-80
2022/05/11 03:06:03;;;;;;;22.70;19.33;;;13.20;99.90;;;;;;5092845;28;20659;-80
2022/05/11 03:08:31;;;;;;;22.17;19.90;;;13.00;99.90;;;;;;5092722;28;20627;-80
2022/05/11 03:10:58;;;;;;;27.40;19.53;;;13.20;99.90;;;;;;5092816;28;20293;-80
2022/05/11 03:13:25;;;;;;;26.57;21.20;;;13.20;99.90;;;;;;5093001;28;20242;-80
2022/05/11 03:15:53;;;;;;;21.93;19.00;;;13.20;99.90;;;;;;5092618;28;20765;-80
2022/05/11 03:18:19;;;;;;;25.13;19.90;;;13.20;99.90;;;;;;5092952;28;20224;-81
2022/05/11 03:20:47;;;;;;;25.43;20.30;;;13.30;99.90;;;;;;5092671;28;20708;-81
2022/05/11 03:23:15;;;;;;;21.97;19.67;;;13.30;99.90;;;;;;5092724;28;20251;-81
2022/05/11 03:25:42;;;;;;;21.87;19.63;;;13.20;99.90;;;;;;5092805;28;20228;-81
2022/05/11 03:28:08;;;;;;;21.50;19.40;;;13.20;99.90;;;;;;5093035;28;20261;-81
2022/05/11 03:30:35;;;;;;;22.30;19.13;;;13.20;99.90;;;;;;5092974;28;20204;-82
2022/05/11 03:35:47;;;;;;;22.27;19.63;;;13.20;99.90;;;;;;5092850;28;20200;-81
2022/05/11 03:38:14;;;;;;;23.50;19.50;;;13.20;99.90;;;;;;5092638;28;20223;-82
2022/05/11 03:40:40;;;;;;;22.47;19.23;;;13.20;99.90;;;;;;5092672;28;20634;-81
2022/05/11 03:43:07;;;;;;;22.27;19.97;;;13.20;99.90;;;;;;5092779;28;20200;-82
2022/05/11 03:45:34;;;;;;;21.90;19.57;;;13.20;99.90;;;;;;5092767;28;20197;-82
2022/05/11 03:48:01;;;;;;;25.70;20.93;;;13.20;99.90;;;;;;5092664;28;20201;-81
2022/05/11 03:50:28;;;;;;;22.73;19.87;;;13.20;99.90;;;;;;5092547;28;20200;-81
2022/05/11 03:52:57;;;;;;;22.17;19.90;;;13.10;99.90;;;;;;5092460;28;20236;-82
2022/05/11 03:55:26;;;;;;;22.50;20.17;;;13.00;99.90;;;;;;5092810;28;20197;-80
2022/05/11 03:57:53;;;;;;;22.87;19.43;;;13.00;99.90;;;;;;5092399;28;20237;-81
2022/05/11 04:00:21;;;;;;;23.13;20.73;;;13.00;99.90;;;;;;5092562;28;20250;-81
2022/05/11 04:02:49;;;;;;;24.63;20.93;;;12.90;99.90;;;;;;5092529;28;20200;-80
2022/05/11 04:05:16;;;;;;;23.70;19.77;;;13.00;99.90;;;;;;5092788;28;20192;-81
2022/05/11 04:07:43;;;;;;;23.17;20.60;;;12.90;99.90;;;;;;5092543;28;20212;-81
2022/05/11 04:10:14;;;;;;;22.50;20.10;;;12.90;99.90;;;;;;5092561;28;20201;-79
2022/05/11 04:12:41;;;;;;;24.23;20.60;;;12.90;99.90;;;;;;5092402;28;20196;-79
2022/05/11 04:15:10;;;;;;;25.90;21.47;;;13.00;99.90;;;;;;5095456;28;20250;-79
2022/05/11 04:17:37;;;;;;;23.47;20.87;;;12.90;99.90;;;;;;5095894;28;20220;-79
2022/05/11 04:20:04;;;;;;;26.23;19.63;;;12.90;99.90;;;;;;5096131;28;20204;-79
2022/05/11 04:22:31;;;;;;;23.60;21.03;;;12.90;99.90;;;;;;5096121;28;20204;-80
2022/05/11 04:24:57;;;;;;;22.67;20.37;;;13.00;99.90;;;;;;5095959;28;20254;-80
2022/05/11 04:27:26;;;;;;;25.20;20.67;;;13.00;99.90;;;;;;5095806;28;20631;-80
2022/05/11 04:29:52;;;;;;;21.57;19.57;;;13.00;99.90;;;;;;5095713;28;20733;-79
2022/05/11 04:32:19;;;;;;;24.10;20.70;;;13.00;99.90;;;;;;5095795;28;20201;-79
2022/05/11 04:34:46;;;;;;;23.43;21.07;;;13.00;99.90;;;;;;5095590;28;20652;-78
2022/05/11 04:37:13;;;;;;;23.90;21.40;;;13.10;99.90;;;;;;5095610;28;20618;-79
2022/05/11 04:39:40;;;;;;;22.80;20.40;;;13.10;99.90;;;;;;5095735;28;20283;-79
2022/05/11 04:42:08;;;;;;;23.60;20.73;;;13.20;99.90;;;;;;5095672;28;20207;-79
2022/05/11 04:44:36;;;;;;;25.23;20.73;;;13.30;99.90;;;;;;5095688;28;20275;-79
2022/05/11 04:47:07;;;;;;;22.20;19.43;;;13.30;99.90;;;;;;5095711;28;20603;-79
2022/05/11 04:49:34;;;;;;;24.10;20.43;;;13.40;99.90;;;;;;5095755;28;20871;-79
2022/05/11 04:52:07;;;;;;;25.13;20.27;;;13.50;99.90;;;;;;5097749;28;20224;-80
2022/05/11 04:54:36;;;;;;;27.23;20.57;;;13.70;99.90;;;;;;5096953;28;20204;-80
2022/05/11 04:57:03;;;;;;;26.80;22.17;;;13.70;99.90;;;;;;5098778;28;20311;-80
2022/05/11 04:59:30;;;;;;;25.67;21.90;;;13.80;99.90;;;;;;5097982;28;20196;-79
2022/05/11 05:01:59;;;;;;;32.83;23.10;;;14.00;99.90;;;;;;5097492;28;20249;-80
2022/05/11 05:04:26;;;;;;;27.60;23.13;;;14.10;99.90;;;;;;5096522;28;20203;-79
2022/05/11 05:06:52;;;;;;;33.57;23.73;;;14.30;99.90;;;;;;5095300;28;20249;-79
2022/05/11 05:09:19;;;;;;;30.17;23.13;;;14.50;99.90;;;;;;5095122;28;20234;-79
2022/05/11 05:11:46;;;;;;;31.67;23.10;;;14.70;99.90;;;;;;5095002;28;20246;-80
2022/05/11 05:14:12;;;;;;;27.73;21.43;;;14.90;99.90;;;;;;5094901;28;20651;-79
2022/05/11 05:16:40;;;;;;;31.97;24.33;;;15.00;99.90;;;;;;5094926;28;20201;-79
2022/05/11 05:19:09;;;;;;;33.77;23.87;;;15.10;99.90;;;;;;5094670;28;20701;-79
2022/05/11 05:21:36;;;;;;;36.57;25.07;;;15.30;99.90;;;;;;5094670;28;20193;-79
2022/05/11 05:24:04;;;;;;;37.33;24.50;;;15.40;99.90;;;;;;5094769;28;20267;-79
2022/05/11 05:26:30;;;;;;;30.77;22.83;;;15.60;99.90;;;;;;5093410;28;20578;-79
2022/05/11 05:31:41;;;;;;;29.30;23.88;;;15.70;99.90;;;;;;5094602;28;20199;-80
2022/05/11 05:34:09;;;;;;;34.13;24.15;;;15.80;99.90;;;;;;5094429;28;20196;-79
2022/05/11 05:36:37;;;;;;;38.30;26.67;;;15.90;99.90;;;;;;5094242;28;20222;-79
2022/05/11 05:39:06;;;;;;;36.97;27.02;;;16.00;99.90;;;;;;5094618;28;20204;-79
2022/05/11 05:41:33;;;;;;;39.47;26.42;;;16.00;99.90;;;;;;5094217;28;20253;-79
2022/05/11 05:44:00;;;;;;;36.38;25.38;;;16.00;99.90;;;;;;5094318;28;20242;-79
2022/05/11 05:46:27;;;;;;;30.85;24.08;;;16.00;99.90;;;;;;5094126;28;20304;-78
2022/05/11 05:48:54;;;;;;;35.40;24.95;;;16.10;99.90;;;;;;5094726;28;20253;-78
2022/05/11 05:51:23;;;;;;;26.33;21.48;;;16.10;99.90;;;;;;5093926;28;20273;-78
2022/05/11 05:53:50;;;;;;;26.25;20.52;;;16.20;99.90;;;;;;5094133;28;20216;-78
2022/05/11 05:56:17;;;;;;;22.50;19.55;;;16.20;99.90;;;;;;5094170;28;20196;-78
2022/05/11 05:58:45;;;;;;;23.98;20.17;;;16.30;99.90;;;;;;5093956;28;20315;-78
2022/05/11 06:01:13;;;;;;;23.08;20.58;;;16.40;99.90;;;;;;5094015;28;20201;-79
2022/05/11 06:03:41;;;;;;;20.25;17.58;;;16.40;99.90;;;;;;5093892;28;20240;-77
2022/05/11 06:06:09;;;;;;;24.88;19.08;;;16.50;99.90;;;;;;5093782;28;20208;-78
2022/05/11 06:08:37;;;;;;;21.67;19.35;;;16.60;99.90;;;;;;5094009;28;20562;-77
2022/05/11 06:11:05;;;;;;;20.90;17.55;;;16.70;99.90;;;;;;5093816;28;20199;-78
2022/05/11 06:13:32;;;;;;;23.27;16.98;;;16.80;99.90;;;;;;5093983;28;20231;-78
2022/05/11 06:15:59;;;;;;;18.65;15.75;;;16.90;99.90;;;;;;5093543;28;20197;-78
2022/05/11 06:18:26;;;;;;;16.60;15.00;;;17.00;99.90;;;;;;5093469;28;20679;-78
2022/05/11 06:20:54;;;;;;;15.25;13.85;;;17.10;99.90;;;;;;5093794;28;20265;-78
2022/05/11 06:23:21;;;;;;;13.98;12.68;;;17.20;99.90;;;;;;5094093;28;20533;-78
2022/05/11 06:25:50;;;;;;;14.50;13.20;;;17.20;99.90;;;;;;5094356;28;20200;-78
2022/05/11 06:28:17;;;;;;;14.68;13.27;;;17.30;99.90;;;;;;5094114;28;20197;-79
2022/05/11 06:30:44;;;;;;;13.38;12.15;;;17.40;99.90;;;;;;5094165;28;20204;-78
2022/05/11 06:33:11;;;;;;;14.45;13.15;;;17.50;99.90;;;;;;5094043;28;20595;-78
2022/05/11 06:35:37;;;;;;;13.90;12.63;;;17.50;99.90;;;;;;5094379;28;20200;-78
2022/05/11 06:38:05;;;;;;;13.27;11.93;;;17.60;99.90;;;;;;5093914;28;20227;-78
2022/05/11 06:40:33;;;;;;;13.82;12.40;;;17.70;99.90;;;;;;5094046;28;20192;-79
2022/05/11 06:43:03;;;;;;;13.00;11.73;;;17.90;99.90;;;;;;5093952;28;20196;-79
2022/05/11 06:45:30;;;;;;;12.68;11.38;;;17.90;99.90;;;;;;5094079;28;20287;-78
2022/05/11 06:47:56;;;;;;;13.00;11.70;;;18.10;99.90;;;;;;5093795;28;20258;-79
2022/05/11 06:50:26;;;;;;;12.77;11.57;;;18.20;99.90;;;;;;5093916;28;20270;-79
2022/05/11 06:52:52;;;;;;;14.82;11.65;;;18.30;99.90;;;;;;5093107;28;20263;-79
2022/05/11 07:00:50;;;;;;;12.35;11.15;;;18.70;99.90;;;;;;5093919;28;20204;-79
2022/05/11 07:03:17;;;;;;;11.07;10.07;;;18.80;99.90;;;;;;5093371;28;20200;-79
2022/05/11 07:05:45;;;;;;;13.18;10.15;;;18.90;99.90;;;;;;5093484;28;20204;-79
2022/05/11 07:08:11;;;;;;;11.70;10.70;;;19.10;99.90;;;;;;5093576;28;20206;-79
2022/05/11 07:10:39;;;;;;;10.00;9.10;;;19.30;99.90;;;;;;5093507;28;20257;-78
2022/05/11 07:13:07;;;;;;;10.70;8.52;;;19.50;99.90;;;;;;5094110;28;20203;-78
2022/05/11 07:15:34;;;;;;;10.70;8.70;;;19.60;99.90;;;;;;5092906;28;20536;-79
2022/05/11 07:18:03;;;;;;;10.98;8.70;;;19.70;99.90;;;;;;5092782;28;20224;-78
2022/05/11 07:20:34;;;;;;;12.65;8.50;;;19.80;99.90;;;;;;5092798;28;20207;-78
2022/05/11 07:23:02;;;;;;;9.35;8.45;;;19.80;99.90;;;;;;5092661;28;20265;-78
2022/05/11 07:25:30;;;;;;;10.88;6.90;;;19.90;99.90;;;;;;5092806;28;20207;-78
2022/05/11 07:27:58;;;;;;;10.23;7.72;;;20.10;99.90;;;;;;5092823;28;20192;-78
2022/05/11 07:30:30;;;;;;;8.48;7.68;;;20.30;99.90;;;;;;5092288;28;20697;-79
2022/05/11 07:32:57;;;;;;;7.93;7.22;;;20.50;99.90;;;;;;5092314;28;20615;-78
2022/05/11 07:35:24;;;;;;;9.25;8.43;;;20.60;99.90;;;;;;5092405;28;20196;-78
2022/05/11 07:37:50;;;;;;;8.38;7.40;;;20.70;99.90;;;;;;5092515;28;20220;-78
2022/05/11 07:40:19;;;;;;;7.45;6.72;;;20.80;99.90;;;;;;5092649;28;20287;-78
2022/05/11 07:42:46;;;;;;;9.15;7.68;;;21.10;99.90;;;;;;5092599;28;20246;-78
2022/05/11 07:45:14;;;;;;;8.98;7.28;;;21.10;99.90;;;;;;5092404;28;20555;-79
2022/05/11 07:47:43;;;;;;;8.60;7.70;;;21.20;99.90;;;;;;5092913;28;20250;-79
2022/05/11 07:50:13;;;;;;;10.63;7.15;;;21.50;99.90;;;;;;5095681;28;20674;-79
2022/05/11 07:52:40;;;;;;;9.77;6.20;;;21.60;99.90;;;;;;5096392;28;20228;-78
2022/05/11 07:55:08;;;;;;;6.40;5.60;;;21.60;99.90;;;;;;5096427;28;20196;-78
2022/05/11 08:00:20;;;;;;;6.40;5.80;;;21.70;99.90;;;;;;5096278;28;20203;-78
2022/05/11 08:02:48;;;;;;;6.45;5.72;;;21.70;99.90;;;;;;5096117;28;20567;-78
2022/05/11 08:05:18;;;;;;;6.53;5.15;;;22.00;99.90;;;;;;5096332;28;20200;-78
2022/05/11 08:07:47;;;;;;;6.88;4.75;;;22.00;99.90;;;;;;5097151;28;20203;-78
2022/05/11 08:10:16;;;;;;;5.57;5.05;;;22.10;99.90;;;;;;5096811;28;20659;-79
2022/05/11 08:12:43;;;;;;;6.13;5.40;;;22.20;99.90;;;;;;5097156;28;20197;-79
2022/05/11 08:15:11;;;;;;;5.60;5.10;;;22.20;99.90;;;;;;5099146;28;20680;-78
2022/05/11 08:17:38;;;;;;;8.05;5.40;;;21.80;99.90;;;;;;5098295;28;20208;-78
2022/05/11 08:20:14;;;;;;;5.70;5.03;;;22.00;99.90;;;;;;5095886;28;20204;-79
2022/05/11 08:22:41;;;;;;;5.32;4.88;;;22.30;99.90;;;;;;5095837;28;20202;-78
2022/05/11 08:25:08;;;;;;;7.97;5.15;;;22.60;99.90;;;;;;5095762;28;20202;-78
2022/05/11 08:27:35;;;;;;;5.35;4.85;;;22.60;98.90;;;;;;5095586;28;20207;-78
2022/05/11 08:35:32;;;;;;;5.13;4.63;;;23.00;96.00;;;;;;5095579;28;20199;-78
2022/05/11 08:37:59;;;;;;;6.93;4.80;;;23.10;95.80;;;;;;5095355;28;20224;-78
2022/05/11 08:40:37;;;;;;;5.18;4.72;;;23.20;93.60;;;;;;5095473;28;20606;-78
2022/05/11 08:43:06;;;;;;;5.10;4.70;;;22.90;94.10;;;;;;5095309;28;20674;-78
2022/05/11 08:45:41;;;;;;;6.40;4.97;;;23.00;94.30;;;;;;5095356;28;20597;-78
2022/05/11 08:48:10;;;;;;;6.22;4.88;;;23.30;93.70;;;;;;5095214;28;20257;-79
2022/05/11 08:50:43;;;;;;;4.75;4.30;;;23.40;92.90;;;;;;5095115;28;20200;-78
2022/05/11 08:53:27;;;;;;;5.63;4.68;;;23.40;92.10;;;;;;5054988;28;20203;-79
2022/05/11 08:55:56;;;;;;;4.55;4.15;;;23.20;90.60;;;;;;5054820;28;20256;-79
2022/05/11 08:58:28;;;;;;;4.50;4.15;;;23.40;88.90;;;;;;5054584;28;20226;-78
2022/05/11 09:00:57;;;;;;;5.05;4.20;;;23.30;86.60;;;;;;5055048;28;20260;-79
2022/05/11 09:03:31;;;;;;;4.90;4.45;;;23.50;85.20;;;;;;5054883;28;20197;-79
2022/05/11 09:06:00;;;;;;;4.47;4.07;;;23.50;84.70;;;;;;5054936;28;20201;-78
2022/05/11 09:08:27;;;;;;;5.45;4.43;;;23.70;82.90;;;;;;5054550;28;20642;-79
2022/05/11 09:10:54;;;;;;;5.25;4.40;;;23.80;81.70;;;;;;5054498;28;20661;-79
2022/05/11 09:13:23;;;;;;;5.68;5.00;;;24.10;80.70;;;;;;5054260;28;20653;-78
2022/05/11 09:15:56;;;;;;;5.22;4.72;;;24.40;78.40;;;;;;5054501;28;20600;-77
2022/05/11 09:18:33;;;;;;;5.25;4.75;;;24.30;75.20;;;;;;5054392;28;20624;-78
2022/05/11 09:21:03;;;;;;;5.80;4.50;;;24.20;74.10;;;;;;5054402;28;20674;-79
2022/05/11 09:23:32;;;;;;;5.93;4.50;;;24.20;71.50;;;;;;5054400;28;20197;-79
2022/05/11 09:26:01;;;;;;;4.63;3.70;;;24.30;68.40;;;;;;5054249;28;20197;-79
2022/05/11 09:28:30;;;;;;;6.97;4.30;;;24.20;69.70;;;;;;5054616;28;20259;-78
2022/05/11 09:31:00;;;;;;;4.25;3.95;;;24.60;68.80;;;;;;5054436;28;20202;-78
2022/05/11 09:33:28;;;;;;;4.80;4.35;;;24.10;68.40;;;;;;5054351;28;20197;-78
2022/05/11 09:35:56;;;;;;;4.57;4.10;;;24.20;67.30;;;;;;5054209;28;20201;-79
2022/05/11 09:38:37;;;;;;;5.93;3.85;;;24.30;64.70;;;;;;5053911;28;20221;-78
2022/05/11 09:41:12;;;;;;;5.93;3.83;;;24.20;62.00;;;;;;5054289;28;20194;-79
2022/05/11 09:43:43;;;;;;;5.95;3.70;;;24.50;59.80;;;;;;5054072;28;20199;-79
2022/05/11 09:46:28;;;;;;;5.35;3.90;;;24.50;60.20;;;;;;5053830;28;20201;-79
2022/05/11 09:49:01;;;;;;;5.80;4.45;;;24.90;58.60;;;;;;5053908;28;20584;-78
2022/05/11 09:51:33;;;;;;;4.88;3.58;;;24.50;57.70;;;;;;5066675;28;20703;-78
2022/05/11 09:54:21;;;;;;;5.53;3.80;;;24.90;57.00;;;;;;5094136;28;20246;-78
2022/05/11 09:56:57;;;;;;;4.38;3.72;;;24.70;53.40;;;;;;5094116;28;20203;-79
2022/05/11 09:59:27;;;;;;;4.43;4.03;;;25.50;52.70;;;;;;5093725;28;20751;-79
2022/05/11 10:02:00;;;;;;;4.20;3.80;;;25.00;52.20;;;;;;5093903;28;20207;-78
2022/05/11 10:04:33;;;;;;;8.35;4.68;;;25.10;53.20;;;;;;5094018;28;20283;-78
2022/05/11 10:07:02;;;;;;;5.50;3.58;;;25.20;51.40;;;;;;5076188;28;20222;-78
2022/05/11 10:09:35;;;;;;;4.40;4.10;;;25.80;53.10;;;;;;5093651;28;20204;-78
2022/05/11 10:12:02;;;;;;;4.13;3.78;;;25.40;51.10;;;;;;5093058;28;20200;-78
2022/05/11 10:23:06;;;;;;;6.50;3.95;;;25.90;46.40;;;;;;5093584;28;20241;-78
2022/05/11 10:25:39;;;;;;;4.07;3.50;;;25.80;46.50;;;;;;5093615;28;20192;-77
2022/05/11 10:28:20;;;;;;;4.40;4.00;;;25.50;47.00;;;;;;5093494;28;20242;-78
2022/05/11 10:30:55;;;;;;;4.05;3.65;;;25.10;46.40;;;;;;5093663;28;20282;-78
2022/05/11 10:33:41;;;;;;;4.55;4.15;;;25.40;45.80;;;;;;5093381;28;20607;-79
2022/05/11 10:36:15;;;;;;;4.20;3.80;;;26.10;46.20;;;;;;5089881;28;20665;-79
2022/05/11 10:38:51;;;;;;;6.22;4.13;;;26.60;43.30;;;;;;5093017;28;20277;-78
2022/05/11 10:41:30;;;;;;;4.43;3.58;;;26.20;43.50;;;;;;5093382;28;20195;-76
2022/05/11 10:44:02;;;;;;;5.97;3.88;;;26.40;42.80;;;;;;5093349;28;20203;-77
2022/05/11 10:46:35;;;;;;;3.75;3.38;;;26.50;40.40;;;;;;5093089;28;20537;-77
2022/05/11 10:49:15;;;;;;;4.43;3.47;;;26.10;40.50;;;;;;5092993;28;20200;-77
2022/05/11 10:51:48;;;;;;;3.70;3.40;;;26.40;41.10;;;;;;5092909;28;20277;-79
2022/05/11 10:54:24;;;;;;;4.32;3.67;;;27.60;39.40;;;;;;5093087;28;20200;-79
2022/05/11 10:57:02;;;;;;;3.53;3.22;;;27.10;38.50;;;;;;5093321;28;20643;-79
2022/05/11 11:00:05;;;;;;;3.92;3.47;;;28.00;36.80;;;;;;5092712;28;20583;-78
2022/05/11 11:03:18;;;;;;;5.95;3.92;;;28.50;35.70;;;;;;5092949;28;20191;-78
2022/05/11 11:08:46;;;;;;;3.47;3.17;;;28.20;33.60;;;;;;5091578;28;20188;-77
2022/05/11 11:11:21;;;;;;;5.22;3.80;;;28.60;34.10;;;;;;5092746;28;20192;-78
2022/05/11 11:13:54;;;;;;;5.03;3.63;;;28.40;33.60;;;;;;5092689;28;20196;-78
2022/05/11 11:16:25;;;;;;;5.55;3.42;;;28.90;32.60;;;;;;5093007;28;20204;-78
2022/05/11 11:18:53;;;;;;;5.88;3.60;;;29.80;30.90;;;;;;5093302;28;20220;-78
2022/05/11 11:21:22;;;;;;;4.60;3.50;;;29.20;30.60;;;;;;5093680;28;20196;-77
2022/05/11 11:24:10;;;;;;;5.57;3.25;;;29.40;30.00;;;;;;5096181;28;20227;-77
2022/05/11 11:26:48;;;;;;;6.28;3.53;;;30.00;29.00;;;;;;5100523;28;20200;-77
2022/05/11 11:29:22;;;;;;;6.00;3.22;;;29.30;29.80;;;;;;5098286;28;20204;-79
2022/05/11 11:32:08;;;;;;;5.32;3.13;;;29.70;28.50;;;;;;5096931;28;20261;-78
2022/05/11 11:34:37;;;;;;;6.43;3.53;;;30.00;28.20;;;;;;5096535;28;20698;-78
2022/05/11 11:37:37;;;;;;;4.70;3.63;;;30.60;27.90;;;;;;5096677;28;20221;-78
2022/05/11 11:40:21;;;;;;;3.92;3.50;;;30.10;27.50;;;;;;5096417;28;20630;-77
2022/05/11 11:42:49;;;;;;;5.25;3.70;;;29.60;28.30;;;;;;5096730;28;20200;-78
2022/05/11 11:45:49;;;;;;;3.90;3.58;;;28.70;28.60;;;;;;5096683;28;20204;-78
2022/05/11 11:48:22;;;;;;;4.78;3.50;;;29.30;27.80;;;;;;5096943;28;20231;-78
2022/05/11 11:50:51;;;;;;;9.70;3.72;;;31.30;27.10;;;;;;5096463;28;20208;-78
2022/05/11 11:53:29;;;;;;;3.97;3.58;;;31.40;26.00;;;;;;5096494;28;20203;-78
2022/05/11 11:55:56;;;;;;;6.72;4.22;;;30.90;26.10;;;;;;5096619;28;20204;-79
2022/05/11 11:58:29;;;;;;;3.95;3.50;;;30.80;26.10;;;;;;5096940;28;20192;-79
2022/05/11 12:01:11;;;;;;;3.65;3.30;;;30.90;26.20;;;;;;5097156;28;20257;-79
2022/05/11 12:03:51;;;;;;;7.80;3.60;;;31.50;24.80;;;;;;5096689;28;20230;-79
2022/05/11 12:17:30;;;;;;;3.90;3.42;;;30.80;25.20;;;;;;5096862;28;20261;-79
2022/05/11 12:20:06;;;;;;;5.15;3.50;;;32.50;23.30;;;;;;5096221;28;20578;-79
2022/05/11 12:22:39;;;;;;;5.93;3.03;;;31.80;23.50;;;;;;5096441;28;20223;-79
2022/05/11 12:25:26;;;;;;;5.65;3.80;;;32.10;23.80;;;;;;5096232;28;20207;-79
2022/05/11 12:27:53;;;;;;;3.78;3.35;;;32.40;22.40;;;;;;5093748;28;20668;-78
2022/05/11 12:30:25;;;;;;;4.57;3.55;;;31.90;21.80;;;;;;5096202;28;20199;-79
2022/05/11 12:32:56;;;;;;;8.00;3.75;;;32.20;22.00;;;;;;5095966;28;20558;-78
2022/05/11 12:35:29;;;;;;;4.85;3.33;;;33.00;22.30;;;;;;5095421;28;20234;-79
2022/05/11 12:37:59;;;;;;;5.32;3.58;;;32.60;22.10;;;;;;5096302;28;20287;-80
2022/05/11 12:40:28;;;;;;;3.80;3.08;;;31.80;21.00;;;;;;5095973;28;20269;-79
2022/05/11 12:42:56;;;;;;;4.10;3.55;;;32.00;21.20;;;;;;5095628;28;20269;-78
2022/05/11 12:45:27;;;;;;;4.28;3.50;;;31.90;21.80;;;;;;5095608;28;20196;-78
2022/05/11 12:47:56;;;;;;;4.28;3.72;;;29.70;23.90;;;;;;5095497;28;20200;-79
2022/05/11 12:50:29;;;;;;;4.63;3.33;;;30.60;23.30;;;;;;5095427;28;20651;-79
2022/05/11 12:53:07;;;;;;;6.20;3.42;;;30.80;23.20;;;;;;5095208;28;20282;-79
2022/05/11 12:55:36;;;;;;;4.10;3.70;;;32.10;23.60;;;;;;5095385;28;20257;-79
2022/05/11 12:58:04;;;;;;;6.07;3.97;;;33.30;21.30;;;;;;5095256;28;20200;-78
2022/05/11 13:00:33;;;;;;;5.80;3.72;;;32.80;21.40;;;;;;5094799;28;20690;-77
2022/05/11 13:03:00;;;;;;;4.10;3.72;;;34.10;21.00;;;;;;5095315;28;20200;-79
2022/05/11 13:05:32;;;;;;;8.00;3.78;;;33.00;20.20;;;;;;5095333;28;20211;-77
2022/05/11 13:08:01;;;;;;;5.55;4.03;;;33.50;21.40;;;;;;5095233;28;20195;-77
2022/05/11 13:10:31;;;;;;;4.05;3.67;;;34.20;20.30;;;;;;5094984;28;20200;-78
2022/05/11 13:13:00;;;;;;;4.55;4.05;;;33.50;20.30;;;;;;5094913;28;20192;-79
2022/05/11 13:15:47;;;;;;;4.15;3.75;;;34.10;20.10;;;;;;5095114;28;20655;-78
2022/05/11 13:18:26;;;;;;;6.72;3.90;;;32.00;20.70;;;;;;5088765;28;20196;-78
2022/05/11 13:20:58;;;;;;;3.75;3.45;;;33.40;20.80;;;;;;5094808;28;20259;-79
2022/05/11 13:23:31;;;;;;;6.28;4.00;;;33.40;20.60;;;;;;5094747;28;20198;-78
2022/05/11 13:26:00;;;;;;;4.80;4.38;;;32.80;20.50;;;;;;5095033;28;20196;-79
2022/05/11 13:28:29;;;;;;;4.20;3.90;;;31.40;21.60;;;;;;5094881;28;20200;-78
2022/05/11 13:30:58;;;;;;;6.80;4.50;;;31.00;22.10;;;;;;5094754;28;20207;-78
2022/05/11 13:33:39;;;;;;;4.85;4.40;;;30.50;23.10;;;;;;5096264;28;20252;-79
2022/05/11 13:36:12;;;;;;;4.65;4.28;;;31.70;22.30;;;;;;5094784;28;20269;-78
2022/05/11 13:38:49;;;;;;;5.82;5.15;;;31.90;22.20;;;;;;5094421;28;20651;-79
2022/05/11 13:41:18;;;;;;;5.15;4.38;;;32.40;21.70;;;;;;5094485;28;20224;-77